sensor_id;sensor_type;location;lat;lon;timestamp;P1;durP1;ratioP1;P2;durP2;ratioP2
77955;SDS011;67152;36.266;32.294;2023-04-05T00:00:11;43.17;;;7.53;;
77955;SDS011;67152;36.266;32.294;2023-04-05T00:02:38;47.35;;;7.28;;
77955;SDS011;67152;36.266;32.294;2023-04-05T00:05:06;47.58;;;8.32;;
77955;SDS011;67152;36.266;32.294;2023-04-05T00:07:34;41.55;;;7.63;;
77955;SDS011;67152;36.266;32.294;2023-04-05T00:10:00;33.95;;;6.65;;
77955;SDS011;67152;36.266;32.294;2023-04-05T00:12:27;49.23;;;8.30;;
77955;SDS011;67152;36.266;32.294;2023-04-05T00:14:56;36.95;;;7.25;;
77955;SDS011;67152;36.266;32.294;2023-04-05T00:17:23;38.80;;;7.22;;
77955;SDS011;67152;36.266;32.294;2023-04-05T00:19:50;45.67;;;6.80;;
77955;SDS011;67152;36.266;32.294;2023-04-05T00:22:22;41.63;;;6.57;;
77955;SDS011;67152;36.266;32.294;2023-04-05T00:24:51;38.13;;;6.78;;
77955;SDS011;67152;36.266;32.294;2023-04-05T00:27:18;25.90;;;5.47;;
77955;SDS011;67152;36.266;32.294;2023-04-05T00:29:45;38.65;;;6.60;;
77955;SDS011;67152;36.266;32.294;2023-04-05T00:32:14;32.93;;;5.37;;
77955;SDS011;67152;36.266;32.294;2023-04-05T00:34:41;42.60;;;8.02;;
77955;SDS011;67152;36.266;32.294;2023-04-05T00:37:08;35.97;;;5.33;;
77955;SDS011;67152;36.266;32.294;2023-04-05T00:39:35;34.40;;;5.72;;
77955;SDS011;67152;36.266;32.294;2023-04-05T00:42:02;41.50;;;7.50;;
77955;SDS011;67152;36.266;32.294;2023-04-05T00:47:03;45.20;;;6.70;;
77955;SDS011;67152;36.266;32.294;2023-04-05T00:49:31;53.67;;;7.75;;
77955;SDS011;67152;36.266;32.294;2023-04-05T00:51:59;32.80;;;5.78;;
77955;SDS011;67152;36.266;32.294;2023-04-05T00:54:26;44.80;;;5.97;;
77955;SDS011;67152;36.266;32.294;2023-04-05T00:56:55;36.58;;;6.75;;
77955;SDS011;67152;36.266;32.294;2023-04-05T00:59:22;33.92;;;6.72;;
77955;SDS011;67152;36.266;32.294;2023-04-05T01:01:49;36.85;;;6.05;;
77955;SDS011;67152;36.266;32.294;2023-04-05T01:04:21;36.83;;;6.43;;
77955;SDS011;67152;36.266;32.294;2023-04-05T01:06:51;41.55;;;6.47;;
77955;SDS011;67152;36.266;32.294;2023-04-05T01:09:36;35.28;;;7.32;;
77955;SDS011;67152;36.266;32.294;2023-04-05T01:12:11;43.03;;;6.53;;
77955;SDS011;67152;36.266;32.294;2023-04-05T01:14:46;30.35;;;4.57;;
77955;SDS011;67152;36.266;32.294;2023-04-05T01:17:15;40.28;;;6.85;;
77955;SDS011;67152;36.266;32.294;2023-04-05T01:19:47;37.30;;;6.82;;
77955;SDS011;67152;36.266;32.294;2023-04-05T01:25:08;50.83;;;7.00;;
77955;SDS011;67152;36.266;32.294;2023-04-05T01:30:29;42.08;;;6.85;;
77955;SDS011;67152;36.266;32.294;2023-04-05T01:35:51;33.13;;;6.25;;
77955;SDS011;67152;36.266;32.294;2023-04-05T01:38:22;41.90;;;5.85;;
77955;SDS011;67152;36.266;32.294;2023-04-05T01:40:51;29.23;;;5.93;;
77955;SDS011;67152;36.266;32.294;2023-04-05T01:43:18;36.20;;;6.60;;
77955;SDS011;67152;36.266;32.294;2023-04-05T01:45:45;25.13;;;5.32;;
77955;SDS011;67152;36.266;32.294;2023-04-05T01:48:12;30.00;;;5.38;;
77955;SDS011;67152;36.266;32.294;2023-04-05T01:50:39;33.58;;;7.22;;
77955;SDS011;67152;36.266;32.294;2023-04-05T01:53:06;28.00;;;5.93;;
77955;SDS011;67152;36.266;32.294;2023-04-05T01:55:33;23.95;;;4.15;;
77955;SDS011;67152;36.266;32.294;2023-04-05T01:58:00;41.25;;;7.53;;
77955;SDS011;67152;36.266;32.294;2023-04-05T02:00:27;30.33;;;6.30;;
77955;SDS011;67152;36.266;32.294;2023-04-05T02:02:54;25.70;;;6.43;;
77955;SDS011;67152;36.266;32.294;2023-04-05T02:05:20;38.60;;;7.47;;
77955;SDS011;67152;36.266;32.294;2023-04-05T02:07:47;39.08;;;6.22;;
77955;SDS011;67152;36.266;32.294;2023-04-05T02:10:14;42.27;;;7.37;;
77955;SDS011;67152;36.266;32.294;2023-04-05T02:12:41;31.80;;;6.40;;
77955;SDS011;67152;36.266;32.294;2023-04-05T02:15:08;33.05;;;6.47;;
77955;SDS011;67152;36.266;32.294;2023-04-05T02:17:35;43.47;;;7.28;;
77955;SDS011;67152;36.266;32.294;2023-04-05T02:20:05;37.03;;;9.00;;
77955;SDS011;67152;36.266;32.294;2023-04-05T02:22:33;38.28;;;7.25;;
77955;SDS011;67152;36.266;32.294;2023-04-05T02:25:02;33.10;;;6.10;;
77955;SDS011;67152;36.266;32.294;2023-04-05T02:29:55;38.33;;;5.50;;
77955;SDS011;67152;36.266;32.294;2023-04-05T02:32:22;32.37;;;6.60;;
77955;SDS011;67152;36.266;32.294;2023-04-05T02:34:49;38.35;;;6.05;;
77955;SDS011;67152;36.266;32.294;2023-04-05T02:39:44;34.25;;;7.22;;
77955;SDS011;67152;36.266;32.294;2023-04-05T02:42:11;40.43;;;6.13;;
77955;SDS011;67152;36.266;32.294;2023-04-05T02:44:37;37.53;;;6.57;;
77955;SDS011;67152;36.266;32.294;2023-04-05T02:47:04;35.23;;;6.00;;
77955;SDS011;67152;36.266;32.294;2023-04-05T02:49:31;34.47;;;5.50;;
77955;SDS011;67152;36.266;32.294;2023-04-05T02:51:57;36.50;;;6.20;;
77955;SDS011;67152;36.266;32.294;2023-04-05T02:54:24;47.40;;;6.60;;
77955;SDS011;67152;36.266;32.294;2023-04-05T02:56:51;45.43;;;6.07;;
77955;SDS011;67152;36.266;32.294;2023-04-05T02:59:19;35.03;;;6.43;;
77955;SDS011;67152;36.266;32.294;2023-04-05T03:01:46;21.23;;;4.28;;
77955;SDS011;67152;36.266;32.294;2023-04-05T03:04:13;32.67;;;5.63;;
77955;SDS011;67152;36.266;32.294;2023-04-05T03:06:42;25.40;;;5.43;;
77955;SDS011;67152;36.266;32.294;2023-04-05T03:09:11;37.13;;;5.60;;
77955;SDS011;67152;36.266;32.294;2023-04-05T03:11:39;41.13;;;6.93;;
77955;SDS011;67152;36.266;32.294;2023-04-05T03:14:06;36.17;;;5.60;;
77955;SDS011;67152;36.266;32.294;2023-04-05T03:16:32;28.67;;;5.43;;
77955;SDS011;67152;36.266;32.294;2023-04-05T03:18:59;29.73;;;5.93;;
77955;SDS011;67152;36.266;32.294;2023-04-05T03:26:21;42.90;;;5.22;;
77955;SDS011;67152;36.266;32.294;2023-04-05T03:28:48;31.40;;;4.78;;
77955;SDS011;67152;36.266;32.294;2023-04-05T03:31:14;33.23;;;5.57;;
77955;SDS011;67152;36.266;32.294;2023-04-05T03:33:42;37.75;;;5.78;;
77955;SDS011;67152;36.266;32.294;2023-04-05T03:36:08;39.77;;;6.20;;
77955;SDS011;67152;36.266;32.294;2023-04-05T03:38:35;36.73;;;5.30;;
77955;SDS011;67152;36.266;32.294;2023-04-05T03:41:02;33.83;;;5.18;;
77955;SDS011;67152;36.266;32.294;2023-04-05T03:43:29;35.43;;;5.80;;
77955;SDS011;67152;36.266;32.294;2023-04-05T03:45:56;38.20;;;5.00;;
77955;SDS011;67152;36.266;32.294;2023-04-05T03:48:22;29.20;;;4.75;;
77955;SDS011;67152;36.266;32.294;2023-04-05T03:50:49;30.80;;;6.10;;
77955;SDS011;67152;36.266;32.294;2023-04-05T03:53:16;35.47;;;6.43;;
77955;SDS011;67152;36.266;32.294;2023-04-05T03:55:43;33.15;;;5.75;;
77955;SDS011;67152;36.266;32.294;2023-04-05T03:58:14;33.67;;;6.40;;
77955;SDS011;67152;36.266;32.294;2023-04-05T04:00:42;28.33;;;5.28;;
77955;SDS011;67152;36.266;32.294;2023-04-05T04:03:08;38.42;;;5.43;;
77955;SDS011;67152;36.266;32.294;2023-04-05T04:05:35;31.40;;;4.80;;
77955;SDS011;67152;36.266;32.294;2023-04-05T04:08:04;33.17;;;5.45;;
77955;SDS011;67152;36.266;32.294;2023-04-05T04:12:57;41.50;;;6.93;;
77955;SDS011;67152;36.266;32.294;2023-04-05T04:15:24;35.90;;;6.00;;
77955;SDS011;67152;36.266;32.294;2023-04-05T04:17:51;35.35;;;5.13;;
77955;SDS011;67152;36.266;32.294;2023-04-05T04:20:18;44.23;;;5.20;;
77955;SDS011;67152;36.266;32.294;2023-04-05T04:22:44;30.43;;;5.20;;
77955;SDS011;67152;36.266;32.294;2023-04-05T04:25:13;29.05;;;4.80;;
77955;SDS011;67152;36.266;32.294;2023-04-05T04:27:43;32.67;;;5.50;;
77955;SDS011;67152;36.266;32.294;2023-04-05T04:30:12;36.45;;;6.72;;
77955;SDS011;67152;36.266;32.294;2023-04-05T04:32:40;34.33;;;5.65;;
77955;SDS011;67152;36.266;32.294;2023-04-05T04:35:21;37.60;;;6.00;;
77955;SDS011;67152;36.266;32.294;2023-04-05T04:37:56;26.40;;;4.68;;
77955;SDS011;67152;36.266;32.294;2023-04-05T04:40:31;31.33;;;4.18;;
77955;SDS011;67152;36.266;32.294;2023-04-05T04:43:15;30.83;;;4.50;;
77955;SDS011;67152;36.266;32.294;2023-04-05T04:45:45;28.77;;;5.73;;
77955;SDS011;67152;36.266;32.294;2023-04-05T04:48:13;30.13;;;4.50;;
77955;SDS011;67152;36.266;32.294;2023-04-05T04:50:41;26.63;;;4.15;;
77955;SDS011;67152;36.266;32.294;2023-04-05T04:53:09;27.23;;;5.25;;
77955;SDS011;67152;36.266;32.294;2023-04-05T04:55:36;27.65;;;4.20;;
77955;SDS011;67152;36.266;32.294;2023-04-05T04:58:04;26.58;;;4.38;;
77955;SDS011;67152;36.266;32.294;2023-04-05T05:00:37;27.38;;;4.10;;
77955;SDS011;67152;36.266;32.294;2023-04-05T05:03:04;35.78;;;4.78;;
77955;SDS011;67152;36.266;32.294;2023-04-05T05:05:33;25.05;;;4.05;;
77955;SDS011;67152;36.266;32.294;2023-04-05T05:08:00;21.92;;;3.92;;
77955;SDS011;67152;36.266;32.294;2023-04-05T05:10:27;23.80;;;3.33;;
77955;SDS011;67152;36.266;32.294;2023-04-05T05:12:54;23.10;;;4.20;;
77955;SDS011;67152;36.266;32.294;2023-04-05T05:15:20;22.92;;;3.50;;
77955;SDS011;67152;36.266;32.294;2023-04-05T05:17:47;17.23;;;3.40;;
77955;SDS011;67152;36.266;32.294;2023-04-05T05:20:17;24.85;;;3.55;;
77955;SDS011;67152;36.266;32.294;2023-04-05T05:22:44;31.52;;;3.50;;
77955;SDS011;67152;36.266;32.294;2023-04-05T05:25:11;27.13;;;4.20;;
77955;SDS011;67152;36.266;32.294;2023-04-05T05:27:38;20.65;;;3.30;;
77955;SDS011;67152;36.266;32.294;2023-04-05T05:30:05;20.13;;;3.35;;
77955;SDS011;67152;36.266;32.294;2023-04-05T05:32:32;20.10;;;3.28;;
77955;SDS011;67152;36.266;32.294;2023-04-05T05:34:59;24.42;;;3.33;;
77955;SDS011;67152;36.266;32.294;2023-04-05T05:37:30;23.15;;;3.63;;
77955;SDS011;67152;36.266;32.294;2023-04-05T05:39:57;17.90;;;3.28;;
77955;SDS011;67152;36.266;32.294;2023-04-05T05:42:24;23.42;;;3.80;;
77955;SDS011;67152;36.266;32.294;2023-04-05T05:44:52;26.20;;;3.30;;
77955;SDS011;67152;36.266;32.294;2023-04-05T05:47:19;17.27;;;3.05;;
77955;SDS011;67152;36.266;32.294;2023-04-05T05:49:46;30.33;;;4.30;;
77955;SDS011;67152;36.266;32.294;2023-04-05T05:52:14;23.55;;;3.95;;
77955;SDS011;67152;36.266;32.294;2023-04-05T05:54:41;29.20;;;3.73;;
77955;SDS011;67152;36.266;32.294;2023-04-05T05:57:08;30.95;;;4.80;;
77955;SDS011;67152;36.266;32.294;2023-04-05T05:59:35;22.02;;;4.18;;
77955;SDS011;67152;36.266;32.294;2023-04-05T06:02:01;19.70;;;3.38;;
77955;SDS011;67152;36.266;32.294;2023-04-05T06:04:28;27.85;;;4.25;;
77955;SDS011;67152;36.266;32.294;2023-04-05T06:06:57;25.08;;;3.53;;
77955;SDS011;67152;36.266;32.294;2023-04-05T06:09:23;28.13;;;4.13;;
77955;SDS011;67152;36.266;32.294;2023-04-05T06:11:53;21.25;;;3.63;;
77955;SDS011;67152;36.266;32.294;2023-04-05T06:14:21;23.35;;;3.60;;
77955;SDS011;67152;36.266;32.294;2023-04-05T06:16:48;21.67;;;4.50;;
77955;SDS011;67152;36.266;32.294;2023-04-05T06:19:15;29.83;;;4.55;;
77955;SDS011;67152;36.266;32.294;2023-04-05T06:21:42;28.60;;;3.80;;
77955;SDS011;67152;36.266;32.294;2023-04-05T06:24:11;26.00;;;4.55;;
77955;SDS011;67152;36.266;32.294;2023-04-05T06:26:38;30.45;;;4.95;;
77955;SDS011;67152;36.266;32.294;2023-04-05T06:29:06;32.17;;;4.78;;
77955;SDS011;67152;36.266;32.294;2023-04-05T06:31:33;24.00;;;4.10;;
77955;SDS011;67152;36.266;32.294;2023-04-05T06:34:01;33.20;;;4.47;;
77955;SDS011;67152;36.266;32.294;2023-04-05T06:38:58;30.40;;;4.55;;
77955;SDS011;67152;36.266;32.294;2023-04-05T06:41:25;31.00;;;3.92;;
77955;SDS011;67152;36.266;32.294;2023-04-05T06:43:55;22.52;;;3.80;;
77955;SDS011;67152;36.266;32.294;2023-04-05T06:46:22;28.58;;;4.85;;
77955;SDS011;67152;36.266;32.294;2023-04-05T06:48:50;27.25;;;4.45;;
77955;SDS011;67152;36.266;32.294;2023-04-05T06:51:17;26.42;;;3.58;;
77955;SDS011;67152;36.266;32.294;2023-04-05T06:53:44;22.15;;;3.88;;
77955;SDS011;67152;36.266;32.294;2023-04-05T06:56:11;31.00;;;4.57;;
77955;SDS011;67152;36.266;32.294;2023-04-05T06:58:38;29.75;;;4.40;;
77955;SDS011;67152;36.266;32.294;2023-04-05T07:01:05;38.55;;;5.32;;
77955;SDS011;67152;36.266;32.294;2023-04-05T07:03:32;28.98;;;4.18;;
77955;SDS011;67152;36.266;32.294;2023-04-05T07:05:59;27.92;;;4.00;;
77955;SDS011;67152;36.266;32.294;2023-04-05T07:10:53;23.73;;;3.85;;
77955;SDS011;67152;36.266;32.294;2023-04-05T07:13:20;25.90;;;4.43;;
77955;SDS011;67152;36.266;32.294;2023-04-05T07:15:49;30.58;;;5.20;;
77955;SDS011;67152;36.266;32.294;2023-04-05T07:20:46;20.63;;;4.43;;
77955;SDS011;67152;36.266;32.294;2023-04-05T07:23:14;30.35;;;4.82;;
77955;SDS011;67152;36.266;32.294;2023-04-05T07:25:41;33.42;;;4.47;;
77955;SDS011;67152;36.266;32.294;2023-04-05T07:28:09;23.67;;;4.20;;
77955;SDS011;67152;36.266;32.294;2023-04-05T07:30:37;27.00;;;4.32;;
77955;SDS011;67152;36.266;32.294;2023-04-05T07:33:04;28.92;;;4.55;;
77955;SDS011;67152;36.266;32.294;2023-04-05T07:35:31;35.15;;;5.13;;
77955;SDS011;67152;36.266;32.294;2023-04-05T07:37:58;26.08;;;5.22;;
77955;SDS011;67152;36.266;32.294;2023-04-05T07:40:25;27.15;;;4.63;;
77955;SDS011;67152;36.266;32.294;2023-04-05T07:42:53;24.95;;;4.60;;
77955;SDS011;67152;36.266;32.294;2023-04-05T07:45:20;23.52;;;4.75;;
77955;SDS011;67152;36.266;32.294;2023-04-05T07:47:48;31.98;;;4.93;;
77955;SDS011;67152;36.266;32.294;2023-04-05T07:50:15;34.88;;;4.80;;
77955;SDS011;67152;36.266;32.294;2023-04-05T07:55:09;28.52;;;3.88;;
77955;SDS011;67152;36.266;32.294;2023-04-05T08:00:03;30.63;;;4.93;;
77955;SDS011;67152;36.266;32.294;2023-04-05T08:02:37;26.10;;;3.67;;
77955;SDS011;67152;36.266;32.294;2023-04-05T08:05:04;28.08;;;4.00;;
77955;SDS011;67152;36.266;32.294;2023-04-05T08:07:31;32.63;;;4.95;;
77955;SDS011;67152;36.266;32.294;2023-04-05T08:09:58;21.45;;;4.07;;
77955;SDS011;67152;36.266;32.294;2023-04-05T08:12:25;36.40;;;5.30;;
77955;SDS011;67152;36.266;32.294;2023-04-05T08:17:19;19.90;;;3.45;;
77955;SDS011;67152;36.266;32.294;2023-04-05T08:19:46;22.27;;;4.82;;
77955;SDS011;67152;36.266;32.294;2023-04-05T08:22:14;32.25;;;5.10;;
77955;SDS011;67152;36.266;32.294;2023-04-05T08:24:42;22.17;;;4.10;;
77955;SDS011;67152;36.266;32.294;2023-04-05T08:27:09;30.17;;;4.55;;
77955;SDS011;67152;36.266;32.294;2023-04-05T08:29:36;24.30;;;4.68;;
77955;SDS011;67152;36.266;32.294;2023-04-05T08:32:03;24.70;;;4.38;;
77955;SDS011;67152;36.266;32.294;2023-04-05T08:34:31;28.05;;;4.68;;
77955;SDS011;67152;36.266;32.294;2023-04-05T08:36:58;24.83;;;4.15;;
77955;SDS011;67152;36.266;32.294;2023-04-05T08:41:59;26.92;;;5.22;;
77955;SDS011;67152;36.266;32.294;2023-04-05T08:44:37;26.38;;;4.63;;
77955;SDS011;67152;36.266;32.294;2023-04-05T08:47:06;26.38;;;4.28;;
77955;SDS011;67152;36.266;32.294;2023-04-05T08:49:35;26.13;;;5.53;;
77955;SDS011;67152;36.266;32.294;2023-04-05T08:52:02;40.08;;;6.22;;
77955;SDS011;67152;36.266;32.294;2023-04-05T08:56:56;38.50;;;4.60;;
77955;SDS011;67152;36.266;32.294;2023-04-05T08:59:24;22.25;;;3.97;;
77955;SDS011;67152;36.266;32.294;2023-04-05T09:01:51;20.10;;;3.80;;
77955;SDS011;67152;36.266;32.294;2023-04-05T09:04:22;33.90;;;4.53;;
77955;SDS011;67152;36.266;32.294;2023-04-05T09:06:54;18.45;;;3.40;;
77955;SDS011;67152;36.266;32.294;2023-04-05T09:09:51;15.68;;;2.50;;
77955;SDS011;67152;36.266;32.294;2023-04-05T09:12:21;16.38;;;2.70;;
77955;SDS011;67152;36.266;32.294;2023-04-05T09:14:48;16.73;;;2.80;;
77955;SDS011;67152;36.266;32.294;2023-04-05T09:19:43;10.20;;;2.30;;
77955;SDS011;67152;36.266;32.294;2023-04-05T09:22:10;21.10;;;2.85;;
77955;SDS011;67152;36.266;32.294;2023-04-05T09:24:39;20.75;;;3.20;;
77955;SDS011;67152;36.266;32.294;2023-04-05T09:29:38;18.55;;;2.80;;
77955;SDS011;67152;36.266;32.294;2023-04-05T09:32:07;17.08;;;3.90;;
77955;SDS011;67152;36.266;32.294;2023-04-05T09:34:35;16.13;;;2.83;;
77955;SDS011;67152;36.266;32.294;2023-04-05T09:37:13;17.80;;;2.92;;
77955;SDS011;67152;36.266;32.294;2023-04-05T09:39:45;16.98;;;2.88;;
77955;SDS011;67152;36.266;32.294;2023-04-05T09:42:18;17.00;;;2.95;;
77955;SDS011;67152;36.266;32.294;2023-04-05T09:44:51;15.55;;;2.78;;
77955;SDS011;67152;36.266;32.294;2023-04-05T09:47:20;17.67;;;3.15;;
77955;SDS011;67152;36.266;32.294;2023-04-05T09:49:51;15.57;;;2.80;;
77955;SDS011;67152;36.266;32.294;2023-04-05T09:52:28;16.40;;;2.95;;
77955;SDS011;67152;36.266;32.294;2023-04-05T09:55:01;12.30;;;2.65;;
77955;SDS011;67152;36.266;32.294;2023-04-05T09:57:32;19.85;;;2.75;;
77955;SDS011;67152;36.266;32.294;2023-04-05T09:59:59;24.15;;;3.33;;
77955;SDS011;67152;36.266;32.294;2023-04-05T10:02:36;18.80;;;3.70;;
77955;SDS011;67152;36.266;32.294;2023-04-05T10:05:07;23.88;;;3.10;;
77955;SDS011;67152;36.266;32.294;2023-04-05T10:07:41;19.48;;;4.03;;
77955;SDS011;67152;36.266;32.294;2023-04-05T10:10:09;24.27;;;3.70;;
77955;SDS011;67152;36.266;32.294;2023-04-05T10:12:42;19.58;;;3.30;;
77955;SDS011;67152;36.266;32.294;2023-04-05T10:15:11;21.13;;;3.38;;
77955;SDS011;67152;36.266;32.294;2023-04-05T10:17:51;15.45;;;3.15;;
77955;SDS011;67152;36.266;32.294;2023-04-05T10:20:25;26.38;;;3.28;;
77955;SDS011;67152;36.266;32.294;2023-04-05T10:22:59;17.75;;;3.55;;
77955;SDS011;67152;36.266;32.294;2023-04-05T10:28:11;18.65;;;3.30;;
77955;SDS011;67152;36.266;32.294;2023-04-05T10:30:45;16.23;;;3.67;;
77955;SDS011;67152;36.266;32.294;2023-04-05T10:33:24;15.32;;;3.47;;
77955;SDS011;67152;36.266;32.294;2023-04-05T10:36:05;15.85;;;2.95;;
77955;SDS011;67152;36.266;32.294;2023-04-05T10:41:59;20.92;;;3.20;;
77955;SDS011;67152;36.266;32.294;2023-04-05T10:44:31;22.85;;;3.97;;
77955;SDS011;67152;36.266;32.294;2023-04-05T10:46:59;24.08;;;3.22;;
77955;SDS011;67152;36.266;32.294;2023-04-05T10:52:01;19.83;;;3.00;;
77955;SDS011;67152;36.266;32.294;2023-04-05T10:54:33;18.73;;;3.20;;
77955;SDS011;67152;36.266;32.294;2023-04-05T10:57:05;19.25;;;3.53;;
77955;SDS011;67152;36.266;32.294;2023-04-05T10:59:34;19.85;;;3.63;;
77955;SDS011;67152;36.266;32.294;2023-04-05T11:02:01;19.60;;;4.00;;
77955;SDS011;67152;36.266;32.294;2023-04-05T11:04:29;22.15;;;4.63;;
77955;SDS011;67152;36.266;32.294;2023-04-05T11:09:49;22.27;;;4.45;;
77955;SDS011;67152;36.266;32.294;2023-04-05T11:12:16;21.15;;;3.97;;
77955;SDS011;67152;36.266;32.294;2023-04-05T11:14:43;21.00;;;4.25;;
77955;SDS011;67152;36.266;32.294;2023-04-05T11:17:23;22.48;;;3.95;;
77955;SDS011;67152;36.266;32.294;2023-04-05T11:19:56;19.30;;;3.50;;
77955;SDS011;67152;36.266;32.294;2023-04-05T11:22:30;46.13;;;7.78;;
77955;SDS011;67152;36.266;32.294;2023-04-05T11:24:58;18.60;;;3.55;;
77955;SDS011;67152;36.266;32.294;2023-04-05T11:27:30;18.45;;;4.00;;
77955;SDS011;67152;36.266;32.294;2023-04-05T11:30:02;23.70;;;4.20;;
77955;SDS011;67152;36.266;32.294;2023-04-05T11:35:24;18.45;;;3.80;;
77955;SDS011;67152;36.266;32.294;2023-04-05T11:40:30;17.67;;;3.33;;
77955;SDS011;67152;36.266;32.294;2023-04-05T11:43:00;27.17;;;4.00;;
77955;SDS011;67152;36.266;32.294;2023-04-05T11:45:33;26.48;;;3.80;;
77955;SDS011;67152;36.266;32.294;2023-04-05T11:48:15;20.40;;;3.05;;
77955;SDS011;67152;36.266;32.294;2023-04-05T11:50:44;16.20;;;3.22;;
77955;SDS011;67152;36.266;32.294;2023-04-05T11:53:17;24.05;;;3.85;;
77955;SDS011;67152;36.266;32.294;2023-04-05T11:55:47;21.40;;;3.95;;
77955;SDS011;67152;36.266;32.294;2023-04-05T11:58:17;13.82;;;3.30;;
77955;SDS011;67152;36.266;32.294;2023-04-05T12:01:01;13.13;;;3.30;;
77955;SDS011;67152;36.266;32.294;2023-04-05T12:03:30;17.35;;;3.38;;
77955;SDS011;67152;36.266;32.294;2023-04-05T12:05:58;23.95;;;3.28;;
77955;SDS011;67152;36.266;32.294;2023-04-05T12:11:06;28.40;;;3.78;;
77955;SDS011;67152;36.266;32.294;2023-04-05T12:13:35;16.23;;;3.17;;
77955;SDS011;67152;36.266;32.294;2023-04-05T12:16:07;19.25;;;3.22;;
77955;SDS011;67152;36.266;32.294;2023-04-05T12:18:35;17.17;;;2.38;;
77955;SDS011;67152;36.266;32.294;2023-04-05T12:21:12;24.05;;;3.10;;
77955;SDS011;67152;36.266;32.294;2023-04-05T12:23:39;16.85;;;2.35;;
77955;SDS011;67152;36.266;32.294;2023-04-05T12:26:06;20.58;;;4.03;;
77955;SDS011;67152;36.266;32.294;2023-04-05T12:34:05;19.50;;;3.53;;
77955;SDS011;67152;36.266;32.294;2023-04-05T12:36:32;24.90;;;3.97;;
77955;SDS011;67152;36.266;32.294;2023-04-05T12:39:05;25.60;;;3.95;;
77955;SDS011;67152;36.266;32.294;2023-04-05T12:41:33;32.20;;;3.75;;
77955;SDS011;67152;36.266;32.294;2023-04-05T12:44:10;24.65;;;3.47;;
77955;SDS011;67152;36.266;32.294;2023-04-05T12:46:44;18.88;;;3.03;;
77955;SDS011;67152;36.266;32.294;2023-04-05T12:51:43;18.45;;;3.00;;
77955;SDS011;67152;36.266;32.294;2023-04-05T12:54:20;21.08;;;3.20;;
77955;SDS011;67152;36.266;32.294;2023-04-05T12:56:51;23.45;;;3.55;;
77955;SDS011;67152;36.266;32.294;2023-04-05T12:59:19;22.65;;;3.55;;
77955;SDS011;67152;36.266;32.294;2023-04-05T13:01:50;20.17;;;3.10;;
77955;SDS011;67152;36.266;32.294;2023-04-05T13:04:19;23.38;;;3.50;;
77955;SDS011;67152;36.266;32.294;2023-04-05T13:06:54;13.18;;;3.63;;
77955;SDS011;67152;36.266;32.294;2023-04-05T13:09:25;19.85;;;3.17;;
77955;SDS011;67152;36.266;32.294;2023-04-05T13:11:56;16.42;;;3.28;;
77955;SDS011;67152;36.266;32.294;2023-04-05T13:14:25;25.33;;;3.42;;
77955;SDS011;67152;36.266;32.294;2023-04-05T13:16:53;23.95;;;3.00;;
77955;SDS011;67152;36.266;32.294;2023-04-05T13:21:47;31.50;;;3.55;;
77955;SDS011;67152;36.266;32.294;2023-04-05T13:24:14;27.23;;;3.47;;
77955;SDS011;67152;36.266;32.294;2023-04-05T13:26:41;28.90;;;3.38;;
77955;SDS011;67152;36.266;32.294;2023-04-05T13:29:08;16.88;;;3.38;;
77955;SDS011;67152;36.266;32.294;2023-04-05T13:31:35;19.60;;;2.95;;
77955;SDS011;67152;36.266;32.294;2023-04-05T13:36:29;26.08;;;3.33;;
77955;SDS011;67152;36.266;32.294;2023-04-05T13:41:23;31.10;;;3.30;;
77955;SDS011;67152;36.266;32.294;2023-04-05T13:43:50;24.10;;;3.75;;
77955;SDS011;67152;36.266;32.294;2023-04-05T13:48:44;22.08;;;4.13;;
77955;SDS011;67152;36.266;32.294;2023-04-05T13:51:11;18.25;;;3.13;;
77955;SDS011;67152;36.266;32.294;2023-04-05T13:53:38;23.13;;;3.33;;
77955;SDS011;67152;36.266;32.294;2023-04-05T13:56:05;25.85;;;3.65;;
77955;SDS011;67152;36.266;32.294;2023-04-05T14:00:59;27.40;;;4.35;;
77955;SDS011;67152;36.266;32.294;2023-04-05T14:03:26;19.27;;;3.88;;
77955;SDS011;67152;36.266;32.294;2023-04-05T14:05:53;18.00;;;3.42;;
77955;SDS011;67152;36.266;32.294;2023-04-05T14:08:20;18.23;;;3.30;;
77955;SDS011;67152;36.266;32.294;2023-04-05T14:13:14;22.85;;;3.70;;
77955;SDS011;67152;36.266;32.294;2023-04-05T14:15:42;26.15;;;4.30;;
77955;SDS011;67152;36.266;32.294;2023-04-05T14:18:09;18.98;;;4.35;;
77955;SDS011;67152;36.266;32.294;2023-04-05T14:20:36;20.30;;;3.53;;
77955;SDS011;67152;36.266;32.294;2023-04-05T14:23:02;22.63;;;3.30;;
77955;SDS011;67152;36.266;32.294;2023-04-05T14:25:49;20.17;;;3.50;;
77955;SDS011;67152;36.266;32.294;2023-04-05T14:28:16;18.83;;;3.33;;
77955;SDS011;67152;36.266;32.294;2023-04-05T14:30:43;16.80;;;4.13;;
77955;SDS011;67152;36.266;32.294;2023-04-05T15:05:05;20.20;;;4.32;;
77955;SDS011;67152;36.266;32.294;2023-04-05T15:07:33;19.17;;;3.92;;
77955;SDS011;67152;36.266;32.294;2023-04-05T15:09:59;26.30;;;4.93;;
77955;SDS011;67152;36.266;32.294;2023-04-05T15:12:26;25.77;;;4.37;;
77955;SDS011;67152;36.266;32.294;2023-04-05T15:14:53;30.73;;;5.93;;
77955;SDS011;67152;36.266;32.294;2023-04-05T15:17:20;24.55;;;4.78;;
77955;SDS011;67152;36.266;32.294;2023-04-05T15:19:47;26.95;;;4.75;;
77955;SDS011;67152;36.266;32.294;2023-04-05T15:22:17;24.10;;;5.60;;
77955;SDS011;67152;36.266;32.294;2023-04-05T15:24:49;31.52;;;5.60;;
77955;SDS011;67152;36.266;32.294;2023-04-05T15:27:16;51.40;;;6.85;;
77955;SDS011;67152;36.266;32.294;2023-04-05T15:29:42;23.40;;;4.60;;
77955;SDS011;67152;36.266;32.294;2023-04-05T15:32:09;29.40;;;4.80;;
77955;SDS011;67152;36.266;32.294;2023-04-05T15:34:37;26.95;;;4.50;;
77955;SDS011;67152;36.266;32.294;2023-04-05T15:37:06;31.35;;;5.55;;
77955;SDS011;67152;36.266;32.294;2023-04-05T15:39:32;35.17;;;6.82;;
77955;SDS011;67152;36.266;32.294;2023-04-05T15:42:00;32.10;;;5.90;;
77955;SDS011;67152;36.266;32.294;2023-04-05T15:44:34;31.52;;;6.20;;
77955;SDS011;67152;36.266;32.294;2023-04-05T15:47:03;36.53;;;6.68;;
77955;SDS011;67152;36.266;32.294;2023-04-05T15:49:30;29.63;;;6.60;;
77955;SDS011;67152;36.266;32.294;2023-04-05T15:52:00;32.40;;;6.55;;
77955;SDS011;67152;36.266;32.294;2023-04-05T15:54:30;36.55;;;5.72;;
77955;SDS011;67152;36.266;32.294;2023-04-05T15:56:59;22.45;;;5.32;;
77955;SDS011;67152;36.266;32.294;2023-04-05T15:59:26;30.95;;;6.40;;
77955;SDS011;67152;36.266;32.294;2023-04-05T16:01:53;52.85;;;9.18;;
77955;SDS011;67152;36.266;32.294;2023-04-05T16:04:20;47.17;;;8.90;;
77955;SDS011;67152;36.266;32.294;2023-04-05T16:06:48;46.47;;;9.00;;
77955;SDS011;67152;36.266;32.294;2023-04-05T16:11:41;49.20;;;9.03;;
77955;SDS011;67152;36.266;32.294;2023-04-05T16:14:08;48.77;;;8.40;;
77955;SDS011;67152;36.266;32.294;2023-04-05T16:16:37;37.03;;;8.27;;
77955;SDS011;67152;36.266;32.294;2023-04-05T16:19:04;47.03;;;7.80;;
77955;SDS011;67152;36.266;32.294;2023-04-05T16:21:33;98.50;;;9.88;;
77955;SDS011;67152;36.266;32.294;2023-04-05T16:23:59;30.47;;;5.87;;
77955;SDS011;67152;36.266;32.294;2023-04-05T16:26:29;28.73;;;6.00;;
77955;SDS011;67152;36.266;32.294;2023-04-05T16:28:56;35.70;;;7.75;;
77955;SDS011;67152;36.266;32.294;2023-04-05T16:31:24;38.53;;;7.65;;
77955;SDS011;67152;36.266;32.294;2023-04-05T16:33:52;42.72;;;7.20;;